sensor_id;sensor_type;location;lat;lon;timestamp;P1;durP1;ratioP1;P2;durP2;ratioP2
29824;SDS011;16713;52.916;12.834;2023-10-31T00:01:13;5.47;;;2.50;;
29824;SDS011;16713;52.916;12.834;2023-10-31T00:03:40;6.47;;;2.30;;
29824;SDS011;16713;52.916;12.834;2023-10-31T00:06:08;3.53;;;2.08;;
29824;SDS011;16713;52.916;12.834;2023-10-31T00:08:35;4.55;;;2.03;;
29824;SDS011;16713;52.916;12.834;2023-10-31T00:11:01;3.20;;;2.10;;
29824;SDS011;16713;52.916;12.834;2023-10-31T00:13:28;5.13;;;1.83;;
29824;SDS011;16713;52.916;12.834;2023-10-31T00:15:54;3.90;;;2.33;;
29824;SDS011;16713;52.916;12.834;2023-10-31T00:18:21;5.15;;;2.17;;
29824;SDS011;16713;52.916;12.834;2023-10-31T00:20:47;4.18;;;2.10;;
29824;SDS011;16713;52.916;12.834;2023-10-31T00:23:14;5.40;;;2.28;;
29824;SDS011;16713;52.916;12.834;2023-10-31T00:25:41;4.10;;;2.08;;
29824;SDS011;16713;52.916;12.834;2023-10-31T00:28:07;4.32;;;2.13;;
29824;SDS011;16713;52.916;12.834;2023-10-31T00:30:34;4.38;;;1.90;;
29824;SDS011;16713;52.916;12.834;2023-10-31T00:33:00;6.15;;;2.17;;
29824;SDS011;16713;52.916;12.834;2023-10-31T00:35:27;4.75;;;2.22;;
29824;SDS011;16713;52.916;12.834;2023-10-31T00:37:53;6.75;;;2.88;;
29824;SDS011;16713;52.916;12.834;2023-10-31T00:40:20;5.50;;;2.75;;
29824;SDS011;16713;52.916;12.834;2023-10-31T00:42:46;5.72;;;3.10;;
29824;SDS011;16713;52.916;12.834;2023-10-31T00:45:13;3.67;;;2.60;;
29824;SDS011;16713;52.916;12.834;2023-10-31T00:47:39;3.85;;;2.22;;
29824;SDS011;16713;52.916;12.834;2023-10-31T00:50:06;5.03;;;2.42;;
29824;SDS011;16713;52.916;12.834;2023-10-31T00:52:34;6.60;;;2.67;;
29824;SDS011;16713;52.916;12.834;2023-10-31T00:55:00;4.88;;;2.20;;
29824;SDS011;16713;52.916;12.834;2023-10-31T00:57:27;6.10;;;2.47;;
29824;SDS011;16713;52.916;12.834;2023-10-31T00:59:54;5.20;;;2.60;;
29824;SDS011;16713;52.916;12.834;2023-10-31T01:02:20;6.20;;;3.90;;
29824;SDS011;16713;52.916;12.834;2023-10-31T01:04:47;5.00;;;2.72;;
29824;SDS011;16713;52.916;12.834;2023-10-31T01:07:13;4.03;;;2.53;;
29824;SDS011;16713;52.916;12.834;2023-10-31T01:09:43;9.32;;;2.90;;
29824;SDS011;16713;52.916;12.834;2023-10-31T01:12:10;3.95;;;2.25;;
29824;SDS011;16713;52.916;12.834;2023-10-31T01:14:37;4.93;;;2.92;;
29824;SDS011;16713;52.916;12.834;2023-10-31T01:17:03;5.70;;;2.35;;
29824;SDS011;16713;52.916;12.834;2023-10-31T01:19:30;5.32;;;2.50;;
29824;SDS011;16713;52.916;12.834;2023-10-31T01:21:57;4.60;;;2.67;;
29824;SDS011;16713;52.916;12.834;2023-10-31T01:24:23;7.00;;;2.65;;
29824;SDS011;16713;52.916;12.834;2023-10-31T01:26:50;5.07;;;2.70;;
29824;SDS011;16713;52.916;12.834;2023-10-31T01:29:16;6.63;;;2.50;;
29824;SDS011;16713;52.916;12.834;2023-10-31T01:31:43;6.78;;;2.47;;
29824;SDS011;16713;52.916;12.834;2023-10-31T01:34:24;8.00;;;3.50;;
29824;SDS011;16713;52.916;12.834;2023-10-31T01:36:51;8.00;;;3.15;;
29824;SDS011;16713;52.916;12.834;2023-10-31T01:39:17;7.13;;;2.85;;
29824;SDS011;16713;52.916;12.834;2023-10-31T01:41:44;5.53;;;2.75;;
29824;SDS011;16713;52.916;12.834;2023-10-31T01:44:10;5.65;;;2.60;;
29824;SDS011;16713;52.916;12.834;2023-10-31T01:46:37;5.35;;;3.47;;
29824;SDS011;16713;52.916;12.834;2023-10-31T01:49:03;5.53;;;3.85;;
29824;SDS011;16713;52.916;12.834;2023-10-31T01:51:30;7.60;;;2.72;;
29824;SDS011;16713;52.916;12.834;2023-10-31T01:53:57;5.75;;;2.70;;
29824;SDS011;16713;52.916;12.834;2023-10-31T01:56:23;5.85;;;3.05;;
29824;SDS011;16713;52.916;12.834;2023-10-31T01:58:51;3.83;;;2.67;;
29824;SDS011;16713;52.916;12.834;2023-10-31T02:01:19;4.25;;;2.35;;
29824;SDS011;16713;52.916;12.834;2023-10-31T02:03:46;4.07;;;2.45;;
29824;SDS011;16713;52.916;12.834;2023-10-31T02:06:14;4.15;;;2.70;;
29824;SDS011;16713;52.916;12.834;2023-10-31T02:08:40;4.13;;;2.80;;
29824;SDS011;16713;52.916;12.834;2023-10-31T02:11:07;3.28;;;2.97;;
29824;SDS011;16713;52.916;12.834;2023-10-31T02:13:36;4.70;;;2.60;;
29824;SDS011;16713;52.916;12.834;2023-10-31T02:16:04;5.65;;;3.25;;
29824;SDS011;16713;52.916;12.834;2023-10-31T02:18:30;7.53;;;3.15;;
29824;SDS011;16713;52.916;12.834;2023-10-31T02:20:58;8.95;;;2.80;;
29824;SDS011;16713;52.916;12.834;2023-10-31T02:23:24;11.13;;;2.90;;
29824;SDS011;16713;52.916;12.834;2023-10-31T02:25:51;4.78;;;2.47;;
29824;SDS011;16713;52.916;12.834;2023-10-31T02:28:17;3.28;;;2.63;;
29824;SDS011;16713;52.916;12.834;2023-10-31T02:30:44;4.38;;;3.28;;
29824;SDS011;16713;52.916;12.834;2023-10-31T02:33:10;5.35;;;2.55;;
29824;SDS011;16713;52.916;12.834;2023-10-31T02:35:38;5.88;;;2.75;;
29824;SDS011;16713;52.916;12.834;2023-10-31T02:38:04;5.35;;;2.28;;
29824;SDS011;16713;52.916;12.834;2023-10-31T02:40:31;5.85;;;2.85;;
29824;SDS011;16713;52.916;12.834;2023-10-31T02:42:57;9.27;;;3.55;;
29824;SDS011;16713;52.916;12.834;2023-10-31T02:45:24;5.20;;;2.67;;
29824;SDS011;16713;52.916;12.834;2023-10-31T02:47:50;4.03;;;2.78;;
29824;SDS011;16713;52.916;12.834;2023-10-31T02:50:17;4.70;;;2.88;;
29824;SDS011;16713;52.916;12.834;2023-10-31T02:52:43;3.90;;;2.70;;
29824;SDS011;16713;52.916;12.834;2023-10-31T02:55:10;7.55;;;3.30;;
29824;SDS011;16713;52.916;12.834;2023-10-31T02:57:36;4.95;;;2.95;;
29824;SDS011;16713;52.916;12.834;2023-10-31T03:00:02;5.80;;;3.55;;
29824;SDS011;16713;52.916;12.834;2023-10-31T03:02:30;5.40;;;2.97;;
29824;SDS011;16713;52.916;12.834;2023-10-31T03:04:57;7.53;;;3.17;;
29824;SDS011;16713;52.916;12.834;2023-10-31T03:07:23;7.70;;;3.05;;
29824;SDS011;16713;52.916;12.834;2023-10-31T03:09:50;6.15;;;3.25;;
29824;SDS011;16713;52.916;12.834;2023-10-31T03:12:16;6.93;;;3.13;;
29824;SDS011;16713;52.916;12.834;2023-10-31T03:14:43;7.20;;;3.30;;
29824;SDS011;16713;52.916;12.834;2023-10-31T03:17:09;6.10;;;2.70;;
29824;SDS011;16713;52.916;12.834;2023-10-31T03:19:36;5.00;;;3.00;;
29824;SDS011;16713;52.916;12.834;2023-10-31T03:22:02;5.55;;;3.22;;
29824;SDS011;16713;52.916;12.834;2023-10-31T03:24:28;6.90;;;3.67;;
29824;SDS011;16713;52.916;12.834;2023-10-31T03:26:55;6.15;;;2.92;;
29824;SDS011;16713;52.916;12.834;2023-10-31T03:29:21;6.90;;;3.20;;
29824;SDS011;16713;52.916;12.834;2023-10-31T03:31:48;13.27;;;5.07;;
29824;SDS011;16713;52.916;12.834;2023-10-31T03:34:14;7.18;;;4.65;;
29824;SDS011;16713;52.916;12.834;2023-10-31T03:36:41;6.55;;;4.25;;
29824;SDS011;16713;52.916;12.834;2023-10-31T03:39:07;7.28;;;3.95;;
29824;SDS011;16713;52.916;12.834;2023-10-31T03:41:34;5.38;;;3.70;;
29824;SDS011;16713;52.916;12.834;2023-10-31T03:44:00;7.07;;;3.78;;
29824;SDS011;16713;52.916;12.834;2023-10-31T03:46:27;9.00;;;3.53;;
29824;SDS011;16713;52.916;12.834;2023-10-31T03:48:53;8.25;;;3.85;;
29824;SDS011;16713;52.916;12.834;2023-10-31T03:51:20;5.50;;;3.78;;
29824;SDS011;16713;52.916;12.834;2023-10-31T03:53:46;7.82;;;5.15;;
29824;SDS011;16713;52.916;12.834;2023-10-31T03:56:12;7.78;;;4.18;;
29824;SDS011;16713;52.916;12.834;2023-10-31T03:58:40;5.93;;;3.92;;
29824;SDS011;16713;52.916;12.834;2023-10-31T04:01:07;8.57;;;3.63;;
29824;SDS011;16713;52.916;12.834;2023-10-31T04:03:33;7.95;;;5.40;;
29824;SDS011;16713;52.916;12.834;2023-10-31T04:06:00;7.35;;;4.22;;
29824;SDS011;16713;52.916;12.834;2023-10-31T04:08:26;7.20;;;4.35;;
29824;SDS011;16713;52.916;12.834;2023-10-31T04:10:53;5.80;;;3.70;;
29824;SDS011;16713;52.916;12.834;2023-10-31T04:13:19;9.02;;;4.75;;
29824;SDS011;16713;52.916;12.834;2023-10-31T04:15:46;6.68;;;4.35;;
29824;SDS011;16713;52.916;12.834;2023-10-31T04:18:12;10.20;;;5.07;;
29824;SDS011;16713;52.916;12.834;2023-10-31T04:20:39;6.45;;;4.97;;
29824;SDS011;16713;52.916;12.834;2023-10-31T04:23:06;8.90;;;4.32;;
29824;SDS011;16713;52.916;12.834;2023-10-31T04:25:33;7.68;;;5.53;;
29824;SDS011;16713;52.916;12.834;2023-10-31T04:27:59;8.27;;;5.40;;
29824;SDS011;16713;52.916;12.834;2023-10-31T04:30:26;6.95;;;4.65;;
29824;SDS011;16713;52.916;12.834;2023-10-31T04:32:54;7.75;;;5.25;;
29824;SDS011;16713;52.916;12.834;2023-10-31T04:35:20;6.93;;;5.40;;
29824;SDS011;16713;52.916;12.834;2023-10-31T04:37:47;8.65;;;5.43;;
29824;SDS011;16713;52.916;12.834;2023-10-31T04:40:13;8.18;;;6.22;;
29824;SDS011;16713;52.916;12.834;2023-10-31T04:42:40;12.90;;;6.50;;
29824;SDS011;16713;52.916;12.834;2023-10-31T04:45:07;8.88;;;6.38;;
29824;SDS011;16713;52.916;12.834;2023-10-31T04:47:34;9.43;;;7.00;;
29824;SDS011;16713;52.916;12.834;2023-10-31T04:50:01;9.45;;;6.15;;
29824;SDS011;16713;52.916;12.834;2023-10-31T04:52:27;10.43;;;6.13;;
29824;SDS011;16713;52.916;12.834;2023-10-31T04:54:54;9.23;;;6.15;;
29824;SDS011;16713;52.916;12.834;2023-10-31T04:57:20;11.93;;;6.35;;
29824;SDS011;16713;52.916;12.834;2023-10-31T04:59:47;12.95;;;6.78;;
29824;SDS011;16713;52.916;12.834;2023-10-31T05:02:13;9.00;;;6.95;;
29824;SDS011;16713;52.916;12.834;2023-10-31T05:04:40;10.38;;;8.18;;
29824;SDS011;16713;52.916;12.834;2023-10-31T05:07:07;9.68;;;6.45;;
29824;SDS011;16713;52.916;12.834;2023-10-31T05:09:34;15.32;;;7.22;;
29824;SDS011;16713;52.916;12.834;2023-10-31T05:12:01;11.15;;;7.13;;
29824;SDS011;16713;52.916;12.834;2023-10-31T05:14:28;15.73;;;7.45;;
29824;SDS011;16713;52.916;12.834;2023-10-31T05:16:55;10.65;;;7.25;;
29824;SDS011;16713;52.916;12.834;2023-10-31T05:19:21;10.20;;;6.63;;
29824;SDS011;16713;52.916;12.834;2023-10-31T05:21:48;13.55;;;7.75;;
29824;SDS011;16713;52.916;12.834;2023-10-31T05:24:14;9.40;;;6.90;;
29824;SDS011;16713;52.916;12.834;2023-10-31T05:26:41;10.05;;;6.97;;
29824;SDS011;16713;52.916;12.834;2023-10-31T05:29:09;10.50;;;7.70;;
29824;SDS011;16713;52.916;12.834;2023-10-31T05:31:36;10.27;;;7.13;;
29824;SDS011;16713;52.916;12.834;2023-10-31T05:34:02;11.30;;;7.03;;
29824;SDS011;16713;52.916;12.834;2023-10-31T05:36:30;8.98;;;7.60;;
29824;SDS011;16713;52.916;12.834;2023-10-31T05:38:57;8.85;;;7.22;;
29824;SDS011;16713;52.916;12.834;2023-10-31T05:41:23;10.57;;;7.03;;
29824;SDS011;16713;52.916;12.834;2023-10-31T05:43:49;8.85;;;7.75;;
29824;SDS011;16713;52.916;12.834;2023-10-31T05:46:16;12.43;;;9.18;;
29824;SDS011;16713;52.916;12.834;2023-10-31T05:48:46;10.98;;;7.78;;
29824;SDS011;16713;52.916;12.834;2023-10-31T05:51:14;10.40;;;7.93;;
29824;SDS011;16713;52.916;12.834;2023-10-31T05:53:43;10.90;;;8.35;;
29824;SDS011;16713;52.916;12.834;2023-10-31T05:56:11;11.45;;;8.75;;
29824;SDS011;16713;52.916;12.834;2023-10-31T05:58:39;8.80;;;7.38;;
29824;SDS011;16713;52.916;12.834;2023-10-31T06:01:06;12.88;;;7.70;;
29824;SDS011;16713;52.916;12.834;2023-10-31T06:03:34;7.93;;;6.68;;
29824;SDS011;16713;52.916;12.834;2023-10-31T06:06:00;8.70;;;7.15;;
29824;SDS011;16713;52.916;12.834;2023-10-31T06:08:27;10.52;;;7.38;;
29824;SDS011;16713;52.916;12.834;2023-10-31T06:10:55;8.45;;;6.65;;
29824;SDS011;16713;52.916;12.834;2023-10-31T06:13:23;9.68;;;7.05;;
29824;SDS011;16713;52.916;12.834;2023-10-31T06:15:52;12.52;;;6.55;;
29824;SDS011;16713;52.916;12.834;2023-10-31T06:18:22;11.38;;;7.60;;
29824;SDS011;16713;52.916;12.834;2023-10-31T06:20:48;8.75;;;6.88;;
29824;SDS011;16713;52.916;12.834;2023-10-31T06:23:15;8.88;;;6.53;;
29824;SDS011;16713;52.916;12.834;2023-10-31T06:25:41;9.77;;;6.55;;
29824;SDS011;16713;52.916;12.834;2023-10-31T06:28:08;10.00;;;6.88;;
29824;SDS011;16713;52.916;12.834;2023-10-31T06:30:34;10.38;;;7.20;;
29824;SDS011;16713;52.916;12.834;2023-10-31T06:33:01;9.35;;;7.18;;
29824;SDS011;16713;52.916;12.834;2023-10-31T06:35:27;9.70;;;6.50;;
29824;SDS011;16713;52.916;12.834;2023-10-31T06:37:54;6.47;;;5.68;;
29824;SDS011;16713;52.916;12.834;2023-10-31T06:40:24;8.85;;;6.60;;
29824;SDS011;16713;52.916;12.834;2023-10-31T06:42:51;8.55;;;6.65;;
29824;SDS011;16713;52.916;12.834;2023-10-31T06:45:17;8.82;;;6.55;;
29824;SDS011;16713;52.916;12.834;2023-10-31T06:47:44;10.23;;;5.78;;
29824;SDS011;16713;52.916;12.834;2023-10-31T06:50:10;8.82;;;6.50;;
29824;SDS011;16713;52.916;12.834;2023-10-31T06:52:37;7.15;;;6.15;;
29824;SDS011;16713;52.916;12.834;2023-10-31T06:55:04;8.68;;;6.40;;
29824;SDS011;16713;52.916;12.834;2023-10-31T06:57:30;9.25;;;6.45;;
29824;SDS011;16713;52.916;12.834;2023-10-31T06:59:57;6.70;;;5.65;;
29824;SDS011;16713;52.916;12.834;2023-10-31T07:02:23;7.88;;;6.85;;
29824;SDS011;16713;52.916;12.834;2023-10-31T07:04:52;8.98;;;6.55;;
29824;SDS011;16713;52.916;12.834;2023-10-31T07:07:18;8.80;;;6.53;;
29824;SDS011;16713;52.916;12.834;2023-10-31T07:09:45;8.57;;;6.13;;
29824;SDS011;16713;52.916;12.834;2023-10-31T07:12:11;8.13;;;5.25;;
29824;SDS011;16713;52.916;12.834;2023-10-31T07:14:38;8.75;;;5.88;;
29824;SDS011;16713;52.916;12.834;2023-10-31T07:17:04;6.57;;;5.45;;
29824;SDS011;16713;52.916;12.834;2023-10-31T07:19:31;6.70;;;5.57;;
29824;SDS011;16713;52.916;12.834;2023-10-31T07:21:57;6.35;;;5.47;;
29824;SDS011;16713;52.916;12.834;2023-10-31T07:24:23;5.78;;;5.03;;
29824;SDS011;16713;52.916;12.834;2023-10-31T07:26:50;6.20;;;4.80;;
29824;SDS011;16713;52.916;12.834;2023-10-31T07:29:17;6.68;;;4.65;;
29824;SDS011;16713;52.916;12.834;2023-10-31T07:31:43;5.00;;;4.13;;
29824;SDS011;16713;52.916;12.834;2023-10-31T07:34:10;5.00;;;4.47;;
29824;SDS011;16713;52.916;12.834;2023-10-31T07:36:37;5.45;;;4.70;;
29824;SDS011;16713;52.916;12.834;2023-10-31T07:39:05;4.93;;;4.40;;
29824;SDS011;16713;52.916;12.834;2023-10-31T07:41:32;5.13;;;4.63;;
29824;SDS011;16713;52.916;12.834;2023-10-31T07:43:58;4.85;;;4.30;;
29824;SDS011;16713;52.916;12.834;2023-10-31T07:46:25;6.75;;;4.15;;
29824;SDS011;16713;52.916;12.834;2023-10-31T07:48:51;4.90;;;4.38;;
29824;SDS011;16713;52.916;12.834;2023-10-31T07:51:18;4.70;;;4.28;;
29824;SDS011;16713;52.916;12.834;2023-10-31T07:53:44;5.38;;;4.85;;
29824;SDS011;16713;52.916;12.834;2023-10-31T07:56:16;6.40;;;4.65;;
29824;SDS011;16713;52.916;12.834;2023-10-31T07:58:49;7.38;;;4.47;;
29824;SDS011;16713;52.916;12.834;2023-10-31T08:01:16;6.70;;;3.70;;
29824;SDS011;16713;52.916;12.834;2023-10-31T08:03:45;4.63;;;3.38;;
29824;SDS011;16713;52.916;12.834;2023-10-31T08:06:15;5.63;;;3.25;;
29824;SDS011;16713;52.916;12.834;2023-10-31T08:08:41;7.07;;;2.97;;
29824;SDS011;16713;52.916;12.834;2023-10-31T08:11:08;4.15;;;3.05;;
29824;SDS011;16713;52.916;12.834;2023-10-31T08:13:39;3.55;;;2.80;;
29824;SDS011;16713;52.916;12.834;2023-10-31T08:16:06;2.75;;;2.50;;
29824;SDS011;16713;52.916;12.834;2023-10-31T08:18:34;5.18;;;2.35;;
29824;SDS011;16713;52.916;12.834;2023-10-31T08:21:01;5.13;;;2.38;;
29824;SDS011;16713;52.916;12.834;2023-10-31T08:23:28;3.67;;;2.50;;
29824;SDS011;16713;52.916;12.834;2023-10-31T08:25:55;2.42;;;1.63;;
29824;SDS011;16713;52.916;12.834;2023-10-31T08:28:21;2.50;;;2.08;;
29824;SDS011;16713;52.916;12.834;2023-10-31T08:30:48;3.30;;;1.52;;
29824;SDS011;16713;52.916;12.834;2023-10-31T08:33:14;3.10;;;1.75;;
29824;SDS011;16713;52.916;12.834;2023-10-31T08:35:41;2.40;;;2.08;;
29824;SDS011;16713;52.916;12.834;2023-10-31T08:38:08;1.98;;;1.77;;
29824;SDS011;16713;52.916;12.834;2023-10-31T08:40:49;1.50;;;1.40;;
29824;SDS011;16713;52.916;12.834;2023-10-31T08:43:15;1.17;;;1.13;;
29824;SDS011;16713;52.916;12.834;2023-10-31T08:45:42;1.30;;;1.20;;
29824;SDS011;16713;52.916;12.834;2023-10-31T08:48:09;1.20;;;1.00;;
29824;SDS011;16713;52.916;12.834;2023-10-31T08:50:35;0.80;;;0.80;;
29824;SDS011;16713;52.916;12.834;2023-10-31T08:53:02;0.77;;;0.77;;
29824;SDS011;16713;52.916;12.834;2023-10-31T08:55:28;0.88;;;0.88;;
29824;SDS011;16713;52.916;12.834;2023-10-31T08:57:55;1.75;;;0.60;;
29824;SDS011;16713;52.916;12.834;2023-10-31T09:00:21;0.95;;;0.47;;
29824;SDS011;16713;52.916;12.834;2023-10-31T09:02:48;0.77;;;0.60;;
29824;SDS011;16713;52.916;12.834;2023-10-31T09:05:15;1.85;;;0.70;;
29824;SDS011;16713;52.916;12.834;2023-10-31T09:07:41;0.55;;;0.55;;
29824;SDS011;16713;52.916;12.834;2023-10-31T09:10:08;0.40;;;0.40;;
29824;SDS011;16713;52.916;12.834;2023-10-31T09:12:35;2.63;;;0.95;;
29824;SDS011;16713;52.916;12.834;2023-10-31T09:15:01;0.40;;;0.40;;
29824;SDS011;16713;52.916;12.834;2023-10-31T09:17:28;2.00;;;0.63;;
29824;SDS011;16713;52.916;12.834;2023-10-31T09:19:55;0.95;;;0.70;;
29824;SDS011;16713;52.916;12.834;2023-10-31T09:22:21;1.10;;;0.40;;
29824;SDS011;16713;52.916;12.834;2023-10-31T09:24:48;0.55;;;0.50;;
29824;SDS011;16713;52.916;12.834;2023-10-31T09:27:14;2.17;;;0.68;;
29824;SDS011;16713;52.916;12.834;2023-10-31T09:29:41;0.32;;;0.30;;
29824;SDS011;16713;52.916;12.834;2023-10-31T09:32:07;1.08;;;0.30;;
29824;SDS011;16713;52.916;12.834;2023-10-31T09:34:34;0.47;;;0.47;;
29824;SDS011;16713;52.916;12.834;2023-10-31T09:37:00;0.60;;;0.43;;
29824;SDS011;16713;52.916;12.834;2023-10-31T09:39:27;0.43;;;0.40;;
29824;SDS011;16713;52.916;12.834;2023-10-31T09:41:54;0.40;;;0.40;;
29824;SDS011;16713;52.916;12.834;2023-10-31T09:44:21;0.40;;;0.40;;
29824;SDS011;16713;52.916;12.834;2023-10-31T09:46:47;7.57;;;1.52;;
29824;SDS011;16713;52.916;12.834;2023-10-31T09:49:15;1.55;;;0.60;;
29824;SDS011;16713;52.916;12.834;2023-10-31T09:51:42;0.95;;;0.60;;
29824;SDS011;16713;52.916;12.834;2023-10-31T09:54:09;3.97;;;1.48;;
29824;SDS011;16713;52.916;12.834;2023-10-31T09:56:39;0.63;;;0.50;;
29824;SDS011;16713;52.916;12.834;2023-10-31T09:59:05;0.47;;;0.45;;
29824;SDS011;16713;52.916;12.834;2023-10-31T10:01:32;0.70;;;0.55;;
29824;SDS011;16713;52.916;12.834;2023-10-31T10:03:58;3.58;;;0.60;;
29824;SDS011;16713;52.916;12.834;2023-10-31T10:06:26;1.15;;;0.40;;
29824;SDS011;16713;52.916;12.834;2023-10-31T10:08:52;0.50;;;0.47;;
29824;SDS011;16713;52.916;12.834;2023-10-31T10:11:21;1.52;;;0.60;;
29824;SDS011;16713;52.916;12.834;2023-10-31T10:13:48;0.82;;;0.40;;
29824;SDS011;16713;52.916;12.834;2023-10-31T10:16:51;1.38;;;0.73;;
29824;SDS011;16713;52.916;12.834;2023-10-31T10:19:17;2.17;;;0.80;;
29824;SDS011;16713;52.916;12.834;2023-10-31T10:24:21;0.88;;;0.65;;
29824;SDS011;16713;52.916;12.834;2023-10-31T10:26:49;2.28;;;0.55;;
29824;SDS011;16713;52.916;12.834;2023-10-31T10:29:16;2.05;;;0.65;;
29824;SDS011;16713;52.916;12.834;2023-10-31T10:31:44;0.77;;;0.65;;
29824;SDS011;16713;52.916;12.834;2023-10-31T10:34:14;0.70;;;0.40;;
29824;SDS011;16713;52.916;12.834;2023-10-31T10:36:43;2.42;;;0.63;;
29824;SDS011;16713;52.916;12.834;2023-10-31T10:39:21;1.27;;;0.50;;
29824;SDS011;16713;52.916;12.834;2023-10-31T10:41:52;0.70;;;0.40;;
29824;SDS011;16713;52.916;12.834;2023-10-31T10:46:58;1.83;;;0.60;;
29824;SDS011;16713;52.916;12.834;2023-10-31T10:49:28;1.15;;;0.70;;
29824;SDS011;16713;52.916;12.834;2023-10-31T10:52:01;1.38;;;0.98;;
29824;SDS011;16713;52.916;12.834;2023-10-31T10:54:44;1.48;;;0.90;;
29824;SDS011;16713;52.916;12.834;2023-10-31T11:00:03;3.55;;;1.58;;
29824;SDS011;16713;52.916;12.834;2023-10-31T11:05:04;1.08;;;0.65;;
29824;SDS011;16713;52.916;12.834;2023-10-31T11:07:34;0.68;;;0.60;;
29824;SDS011;16713;52.916;12.834;2023-10-31T11:10:01;1.13;;;0.60;;
29824;SDS011;16713;52.916;12.834;2023-10-31T11:12:29;1.00;;;0.60;;
29824;SDS011;16713;52.916;12.834;2023-10-31T11:14:57;2.30;;;0.95;;
29824;SDS011;16713;52.916;12.834;2023-10-31T11:17:26;1.00;;;0.70;;
29824;SDS011;16713;52.916;12.834;2023-10-31T11:19:56;1.65;;;0.80;;
29824;SDS011;16713;52.916;12.834;2023-10-31T11:22:23;1.13;;;0.50;;
29824;SDS011;16713;52.916;12.834;2023-10-31T11:24:51;1.98;;;0.90;;
29824;SDS011;16713;52.916;12.834;2023-10-31T11:27:18;1.75;;;0.60;;
29824;SDS011;16713;52.916;12.834;2023-10-31T11:29:44;2.30;;;0.50;;
29824;SDS011;16713;52.916;12.834;2023-10-31T11:32:11;1.63;;;0.70;;
29824;SDS011;16713;52.916;12.834;2023-10-31T11:34:38;1.25;;;0.60;;
29824;SDS011;16713;52.916;12.834;2023-10-31T11:42:47;1.27;;;0.60;;
29824;SDS011;16713;52.916;12.834;2023-10-31T11:47:54;1.80;;;0.60;;
29824;SDS011;16713;52.916;12.834;2023-10-31T11:50:21;1.58;;;0.77;;
29824;SDS011;16713;52.916;12.834;2023-10-31T11:53:00;1.23;;;0.60;;
29824;SDS011;16713;52.916;12.834;2023-10-31T11:55:35;1.10;;;0.30;;
29824;SDS011;16713;52.916;12.834;2023-10-31T12:01:00;0.98;;;0.43;;
29824;SDS011;16713;52.916;12.834;2023-10-31T12:03:36;1.67;;;0.50;;
29824;SDS011;16713;52.916;12.834;2023-10-31T12:06:08;0.50;;;0.40;;
29824;SDS011;16713;52.916;12.834;2023-10-31T12:08:36;0.40;;;0.40;;
29824;SDS011;16713;52.916;12.834;2023-10-31T12:11:07;4.47;;;0.73;;
29824;SDS011;16713;52.916;12.834;2023-10-31T12:13:36;1.02;;;0.70;;
29824;SDS011;16713;52.916;12.834;2023-10-31T12:16:05;1.40;;;0.40;;
29824;SDS011;16713;52.916;12.834;2023-10-31T12:18:34;0.90;;;0.50;;
29824;SDS011;16713;52.916;12.834;2023-10-31T12:21:01;0.40;;;0.40;;
29824;SDS011;16713;52.916;12.834;2023-10-31T12:23:29;0.40;;;0.40;;
29824;SDS011;16713;52.916;12.834;2023-10-31T12:25:55;1.35;;;0.57;;
29824;SDS011;16713;52.916;12.834;2023-10-31T12:28:23;0.55;;;0.43;;
29824;SDS011;16713;52.916;12.834;2023-10-31T12:30:51;2.05;;;0.30;;
29824;SDS011;16713;52.916;12.834;2023-10-31T12:33:25;1.65;;;0.60;;
29824;SDS011;16713;52.916;12.834;2023-10-31T12:35:56;0.93;;;0.32;;
29824;SDS011;16713;52.916;12.834;2023-10-31T12:38:24;2.58;;;0.43;;
29824;SDS011;16713;52.916;12.834;2023-10-31T12:40:50;0.35;;;0.35;;
29824;SDS011;16713;52.916;12.834;2023-10-31T12:43:18;0.30;;;0.30;;
29824;SDS011;16713;52.916;12.834;2023-10-31T12:45:45;0.35;;;0.35;;
29824;SDS011;16713;52.916;12.834;2023-10-31T12:48:11;1.60;;;0.30;;
29824;SDS011;16713;52.916;12.834;2023-10-31T12:50:38;0.30;;;0.30;;
29824;SDS011;16713;52.916;12.834;2023-10-31T12:53:06;2.28;;;0.50;;
29824;SDS011;16713;52.916;12.834;2023-10-31T12:55:39;1.40;;;0.50;;
29824;SDS011;16713;52.916;12.834;2023-10-31T12:58:07;1.83;;;0.50;;
29824;SDS011;16713;52.916;12.834;2023-10-31T13:00:41;0.50;;;0.50;;
29824;SDS011;16713;52.916;12.834;2023-10-31T13:03:08;0.95;;;0.40;;
29824;SDS011;16713;52.916;12.834;2023-10-31T13:05:35;0.63;;;0.60;;
29824;SDS011;16713;52.916;12.834;2023-10-31T13:08:14;1.98;;;0.57;;
29824;SDS011;16713;52.916;12.834;2023-10-31T13:10:43;1.45;;;0.32;;
29824;SDS011;16713;52.916;12.834;2023-10-31T13:13:09;0.50;;;0.40;;
29824;SDS011;16713;52.916;12.834;2023-10-31T13:15:38;3.00;;;2.10;;
29824;SDS011;16713;52.916;12.834;2023-10-31T13:18:04;0.70;;;0.70;;
29824;SDS011;16713;52.916;12.834;2023-10-31T13:20:31;1.65;;;1.27;;
29824;SDS011;16713;52.916;12.834;2023-10-31T13:22:58;5.10;;;1.30;;
29824;SDS011;16713;52.916;12.834;2023-10-31T13:25:28;0.45;;;0.45;;
29824;SDS011;16713;52.916;12.834;2023-10-31T13:27:55;1.17;;;0.47;;
29824;SDS011;16713;52.916;12.834;2023-10-31T13:30:23;1.25;;;0.50;;
29824;SDS011;16713;52.916;12.834;2023-10-31T13:32:51;1.30;;;0.40;;
29824;SDS011;16713;52.916;12.834;2023-10-31T13:35:19;0.28;;;0.28;;
29824;SDS011;16713;52.916;12.834;2023-10-31T13:37:46;0.40;;;0.40;;
29824;SDS011;16713;52.916;12.834;2023-10-31T13:40:12;0.80;;;0.30;;
29824;SDS011;16713;52.916;12.834;2023-10-31T13:42:40;1.55;;;0.22;;
29824;SDS011;16713;52.916;12.834;2023-10-31T13:45:06;0.57;;;0.30;;
29824;SDS011;16713;52.916;12.834;2023-10-31T13:47:33;0.68;;;0.30;;
29824;SDS011;16713;52.916;12.834;2023-10-31T13:50:00;0.77;;;0.43;;
29824;SDS011;16713;52.916;12.834;2023-10-31T13:52:27;0.60;;;0.55;;
29824;SDS011;16713;52.916;12.834;2023-10-31T13:54:53;0.93;;;0.60;;
29824;SDS011;16713;52.916;12.834;2023-10-31T13:57:20;2.33;;;0.60;;
29824;SDS011;16713;52.916;12.834;2023-10-31T13:59:46;0.57;;;0.40;;
29824;SDS011;16713;52.916;12.834;2023-10-31T14:02:13;2.00;;;0.40;;
29824;SDS011;16713;52.916;12.834;2023-10-31T14:04:40;0.22;;;0.22;;
29824;SDS011;16713;52.916;12.834;2023-10-31T14:07:06;2.15;;;0.57;;
29824;SDS011;16713;52.916;12.834;2023-10-31T14:09:33;1.77;;;0.40;;
29824;SDS011;16713;52.916;12.834;2023-10-31T14:11:59;0.20;;;0.20;;
29824;SDS011;16713;52.916;12.834;2023-10-31T14:14:26;0.75;;;0.40;;
29824;SDS011;16713;52.916;12.834;2023-10-31T14:16:52;0.82;;;0.30;;
29824;SDS011;16713;52.916;12.834;2023-10-31T14:19:19;1.48;;;0.13;;
29824;SDS011;16713;52.916;12.834;2023-10-31T14:21:46;0.60;;;0.60;;
29824;SDS011;16713;52.916;12.834;2023-10-31T14:24:12;1.65;;;0.30;;
29824;SDS011;16713;52.916;12.834;2023-10-31T14:26:39;1.00;;;0.40;;
29824;SDS011;16713;52.916;12.834;2023-10-31T14:29:07;0.57;;;0.47;;
29824;SDS011;16713;52.916;12.834;2023-10-31T14:31:40;0.30;;;0.30;;
29824;SDS011;16713;52.916;12.834;2023-10-31T14:34:08;1.02;;;0.55;;
29824;SDS011;16713;52.916;12.834;2023-10-31T14:36:35;1.15;;;0.43;;
29824;SDS011;16713;52.916;12.834;2023-10-31T14:39:02;1.20;;;1.08;;
29824;SDS011;16713;52.916;12.834;2023-10-31T14:41:29;0.55;;;0.30;;
29824;SDS011;16713;52.916;12.834;2023-10-31T14:43:59;0.77;;;0.50;;
29824;SDS011;16713;52.916;12.834;2023-10-31T14:46:27;1.10;;;0.60;;
29824;SDS011;16713;52.916;12.834;2023-10-31T14:48:55;1.98;;;0.82;;
29824;SDS011;16713;52.916;12.834;2023-10-31T14:51:21;0.68;;;0.65;;
29824;SDS011;16713;52.916;12.834;2023-10-31T14:53:48;0.90;;;0.55;;
29824;SDS011;16713;52.916;12.834;2023-10-31T14:56:15;3.30;;;0.57;;